Messwerte Guanajuato

Temperatur

Temperatur
°C
1574161200 5.00 5.00 10
1574164800 6.00 6.00
1574168400 7.00 7.00 10
1574172000 8.00 8.00 12
1574175600 9.00 9.00 16
1574179200 10.00 10.00 19
1574182800 11.00 11.00 22
1574186400 12.00 12.00 22
1574190000 13.00 13.00 24
1574193600 14.00 14.00 24
1574197200 15.00 15.00 25
1574200800 16.00 16.00 25
1574204400 17.00 17.00 24
1574208000 18.00 18.00 22
1574211600 19.00 19.00 20
1574215200 20.00 20.00 17
1574218800 21.00 21.00 15
1574222400 22.00 22.00 16
1574226000 23.00 23.00 14
1574229600 0.00 0.00 13
1574233200 1.00 1.00
1574236800 2.00 2.00
1574240400 3.00 3.00
1574244000 4.00 4.00 10

Aktuellste Messwerte

Wettercharakter
Wetter: freundlich
Temperatur
10 °C
Feuchtigkeit
85 %
Wind
0 km/h, -
Luftdruck
1025 hPa
Messzeit: 20. November 2019, 5.00Datenquelle: METAR

Weitere Messstationen in der Nähe

Messstation Temperatur Entfernung
Queretaro 10 °C 103 km
San Luis Potosí 9 °C 135 km
Aguascalientes 11 °C 143 km
Morelia 10 °C 145 km
Uruapan - 194 km
Guadalajara 15 °C 221 km
Toluca - 254 km

Wind

Windrichtung Böen Mittelwind
° km/h km/h
1574161200 5.00 4.00 - 5.00 30° 5
1574164800 6.00 5.00 - 6.00
1574168400 7.00 6.00 - 7.00 350° 5
1574172000 8.00 7.00 - 8.00 350° 5
1574175600 9.00 8.00 - 9.00 0
1574179200 10.00 9.00 - 10.00 200° 5
1574182800 11.00 10.00 - 11.00 0
1574186400 12.00 11.00 - 12.00 220° 10
1574190000 13.00 12.00 - 13.00 240° 10
1574193600 14.00 13.00 - 14.00 240° 10
1574197200 15.00 14.00 - 15.00 260° 10
1574200800 16.00 15.00 - 16.00 310° 10
1574204400 17.00 16.00 - 17.00 300° 10
1574208000 18.00 17.00 - 18.00 280° 5
1574211600 19.00 18.00 - 19.00 90° 10
1574215200 20.00 19.00 - 20.00 0
1574218800 21.00 20.00 - 21.00 0
1574222400 22.00 21.00 - 22.00 0
1574226000 23.00 22.00 - 23.00 0
1574229600 0.00 23.00 - 0.00 360° 10
1574233200 1.00 0.00 - 1.00
1574236800 2.00 1.00 - 2.00
1574240400 3.00 2.00 - 3.00
1574244000 4.00 3.00 - 4.00 0

Ihre Wetterstation

Fehlt Ihre Wetterstation auf unserem Portal?

Schreiben Sie an network@meteonews.ch

Klima

Wann ist es am wärmsten? Wann regnet es am wenigsten? Unsere Klimadaten geben Auskunft.